sensor_id;sensor_type;location;lat;lon;timestamp;P1;durP1;ratioP1;P2;durP2;ratioP2
3321;SDS011;1673;51.388;7.086;2022-09-09T00:02:04;3.63;;;1.13;;
3321;SDS011;1673;51.388;7.086;2022-09-09T00:04:40;3.35;;;1.20;;
3321;SDS011;1673;51.388;7.086;2022-09-09T00:07:12;3.42;;;1.35;;
3321;SDS011;1673;51.388;7.086;2022-09-09T00:09:46;1.98;;;1.10;;
3321;SDS011;1673;51.388;7.086;2022-09-09T00:12:18;3.92;;;1.70;;
3321;SDS011;1673;51.388;7.086;2022-09-09T00:14:54;2.93;;;1.00;;
3321;SDS011;1673;51.388;7.086;2022-09-09T00:17:30;2.70;;;1.30;;
3321;SDS011;1673;51.388;7.086;2022-09-09T00:20:05;5.72;;;1.67;;
3321;SDS011;1673;51.388;7.086;2022-09-09T00:22:42;4.03;;;1.13;;
3321;SDS011;1673;51.388;7.086;2022-09-09T00:25:19;3.60;;;1.30;;
3321;SDS011;1673;51.388;7.086;2022-09-09T00:27:53;4.75;;;1.30;;
3321;SDS011;1673;51.388;7.086;2022-09-09T00:30:24;3.70;;;1.45;;
3321;SDS011;1673;51.388;7.086;2022-09-09T00:32:58;6.50;;;1.80;;
3321;SDS011;1673;51.388;7.086;2022-09-09T00:35:31;3.75;;;1.60;;
3321;SDS011;1673;51.388;7.086;2022-09-09T00:38:05;4.95;;;1.50;;
3321;SDS011;1673;51.388;7.086;2022-09-09T00:40:41;3.40;;;1.60;;
3321;SDS011;1673;51.388;7.086;2022-09-09T00:43:26;3.45;;;1.50;;
3321;SDS011;1673;51.388;7.086;2022-09-09T00:46:11;5.65;;;1.70;;
3321;SDS011;1673;51.388;7.086;2022-09-09T00:49:03;5.15;;;1.80;;
3321;SDS011;1673;51.388;7.086;2022-09-09T00:51:41;5.95;;;1.50;;
3321;SDS011;1673;51.388;7.086;2022-09-09T00:54:20;4.70;;;1.67;;
3321;SDS011;1673;51.388;7.086;2022-09-09T00:56:57;3.70;;;1.95;;
3321;SDS011;1673;51.388;7.086;2022-09-09T00:59:40;4.05;;;1.60;;
3321;SDS011;1673;51.388;7.086;2022-09-09T01:02:18;3.97;;;1.63;;
3321;SDS011;1673;51.388;7.086;2022-09-09T01:05:00;4.30;;;1.87;;
3321;SDS011;1673;51.388;7.086;2022-09-09T01:07:36;3.75;;;1.70;;
3321;SDS011;1673;51.388;7.086;2022-09-09T01:10:07;7.38;;;1.70;;
3321;SDS011;1673;51.388;7.086;2022-09-09T01:12:42;6.80;;;1.75;;
3321;SDS011;1673;51.388;7.086;2022-09-09T01:15:17;3.92;;;1.77;;
3321;SDS011;1673;51.388;7.086;2022-09-09T01:17:53;6.20;;;2.00;;
3321;SDS011;1673;51.388;7.086;2022-09-09T01:20:35;5.45;;;2.30;;
3321;SDS011;1673;51.388;7.086;2022-09-09T01:23:15;5.32;;;2.35;;
3321;SDS011;1673;51.388;7.086;2022-09-09T01:26:15;7.60;;;2.40;;
3321;SDS011;1673;51.388;7.086;2022-09-09T01:28:48;5.53;;;3.20;;
3321;SDS011;1673;51.388;7.086;2022-09-09T01:31:26;7.55;;;3.38;;
3321;SDS011;1673;51.388;7.086;2022-09-09T01:33:56;11.43;;;4.40;;
3321;SDS011;1673;51.388;7.086;2022-09-09T01:36:29;11.35;;;4.72;;
3321;SDS011;1673;51.388;7.086;2022-09-09T01:39:05;11.40;;;4.40;;
3321;SDS011;1673;51.388;7.086;2022-09-09T01:41:38;8.95;;;3.75;;
3321;SDS011;1673;51.388;7.086;2022-09-09T01:44:10;12.98;;;3.70;;
3321;SDS011;1673;51.388;7.086;2022-09-09T01:46:43;5.20;;;3.42;;
3321;SDS011;1673;51.388;7.086;2022-09-09T01:49:16;7.15;;;3.35;;
3321;SDS011;1673;51.388;7.086;2022-09-09T01:51:46;8.37;;;3.60;;
3321;SDS011;1673;51.388;7.086;2022-09-09T01:54:26;10.93;;;3.40;;
3321;SDS011;1673;51.388;7.086;2022-09-09T01:57:06;7.97;;;3.30;;
3321;SDS011;1673;51.388;7.086;2022-09-09T01:59:45;8.70;;;3.20;;
3321;SDS011;1673;51.388;7.086;2022-09-09T02:02:19;9.05;;;3.90;;
3321;SDS011;1673;51.388;7.086;2022-09-09T02:05:11;11.82;;;3.80;;
3321;SDS011;1673;51.388;7.086;2022-09-09T02:07:48;7.65;;;3.30;;
3321;SDS011;1673;51.388;7.086;2022-09-09T02:10:34;10.25;;;3.90;;
3321;SDS011;1673;51.388;7.086;2022-09-09T02:13:17;9.88;;;3.83;;
3321;SDS011;1673;51.388;7.086;2022-09-09T02:15:51;6.85;;;3.92;;
3321;SDS011;1673;51.388;7.086;2022-09-09T02:18:24;9.55;;;4.07;;
3321;SDS011;1673;51.388;7.086;2022-09-09T02:20:56;9.15;;;4.40;;
3321;SDS011;1673;51.388;7.086;2022-09-09T02:23:27;8.32;;;4.20;;
3321;SDS011;1673;51.388;7.086;2022-09-09T02:25:59;10.30;;;4.30;;
3321;SDS011;1673;51.388;7.086;2022-09-09T02:28:33;7.70;;;3.65;;
3321;SDS011;1673;51.388;7.086;2022-09-09T02:31:04;10.38;;;3.80;;
3321;SDS011;1673;51.388;7.086;2022-09-09T02:33:40;7.63;;;3.67;;
3321;SDS011;1673;51.388;7.086;2022-09-09T02:36:12;7.50;;;3.20;;
3321;SDS011;1673;51.388;7.086;2022-09-09T02:38:45;7.55;;;3.55;;
3321;SDS011;1673;51.388;7.086;2022-09-09T02:41:18;6.57;;;3.60;;
3321;SDS011;1673;51.388;7.086;2022-09-09T02:43:51;9.23;;;3.60;;
3321;SDS011;1673;51.388;7.086;2022-09-09T02:46:26;7.47;;;3.88;;
3321;SDS011;1673;51.388;7.086;2022-09-09T02:49:03;8.20;;;3.60;;
3321;SDS011;1673;51.388;7.086;2022-09-09T02:51:40;9.93;;;3.80;;
3321;SDS011;1673;51.388;7.086;2022-09-09T02:54:17;9.55;;;3.53;;
3321;SDS011;1673;51.388;7.086;2022-09-09T02:56:51;8.40;;;3.10;;
3321;SDS011;1673;51.388;7.086;2022-09-09T02:59:34;7.93;;;3.38;;
3321;SDS011;1673;51.388;7.086;2022-09-09T03:02:04;6.07;;;3.30;;
3321;SDS011;1673;51.388;7.086;2022-09-09T03:04:34;9.63;;;2.95;;
3321;SDS011;1673;51.388;7.086;2022-09-09T03:07:04;10.77;;;3.40;;
3321;SDS011;1673;51.388;7.086;2022-09-09T03:09:34;8.57;;;3.05;;
3321;SDS011;1673;51.388;7.086;2022-09-09T03:12:03;8.80;;;2.60;;
3321;SDS011;1673;51.388;7.086;2022-09-09T03:14:36;7.28;;;2.80;;
3321;SDS011;1673;51.388;7.086;2022-09-09T03:17:06;7.72;;;2.97;;
3321;SDS011;1673;51.388;7.086;2022-09-09T03:19:43;7.95;;;2.35;;
3321;SDS011;1673;51.388;7.086;2022-09-09T03:22:13;8.57;;;2.35;;
3321;SDS011;1673;51.388;7.086;2022-09-09T03:24:44;8.63;;;2.80;;
3321;SDS011;1673;51.388;7.086;2022-09-09T03:27:14;4.32;;;2.30;;
3321;SDS011;1673;51.388;7.086;2022-09-09T03:29:48;4.40;;;2.10;;
3321;SDS011;1673;51.388;7.086;2022-09-09T03:32:22;5.00;;;2.70;;
3321;SDS011;1673;51.388;7.086;2022-09-09T03:34:53;5.70;;;2.35;;
3321;SDS011;1673;51.388;7.086;2022-09-09T03:37:23;5.70;;;2.33;;
3321;SDS011;1673;51.388;7.086;2022-09-09T03:39:53;4.90;;;2.50;;
3321;SDS011;1673;51.388;7.086;2022-09-09T03:42:23;8.45;;;2.45;;
3321;SDS011;1673;51.388;7.086;2022-09-09T03:44:57;6.70;;;2.80;;
3321;SDS011;1673;51.388;7.086;2022-09-09T03:47:28;5.03;;;2.40;;
3321;SDS011;1673;51.388;7.086;2022-09-09T03:50:04;10.70;;;2.50;;
3321;SDS011;1673;51.388;7.086;2022-09-09T03:52:39;7.20;;;2.40;;
3321;SDS011;1673;51.388;7.086;2022-09-09T03:55:16;9.70;;;2.67;;
3321;SDS011;1673;51.388;7.086;2022-09-09T03:57:46;7.10;;;2.20;;
3321;SDS011;1673;51.388;7.086;2022-09-09T04:00:19;10.27;;;2.50;;
3321;SDS011;1673;51.388;7.086;2022-09-09T04:02:51;6.30;;;2.17;;
3321;SDS011;1673;51.388;7.086;2022-09-09T04:05:23;9.43;;;2.50;;
3321;SDS011;1673;51.388;7.086;2022-09-09T04:07:53;10.17;;;2.60;;
3321;SDS011;1673;51.388;7.086;2022-09-09T04:10:23;9.88;;;2.67;;
3321;SDS011;1673;51.388;7.086;2022-09-09T04:12:54;11.38;;;3.00;;
3321;SDS011;1673;51.388;7.086;2022-09-09T04:15:26;8.35;;;2.80;;
3321;SDS011;1673;51.388;7.086;2022-09-09T04:17:56;6.72;;;3.00;;
3321;SDS011;1673;51.388;7.086;2022-09-09T04:20:26;7.47;;;2.60;;
3321;SDS011;1673;51.388;7.086;2022-09-09T04:22:56;7.30;;;2.70;;
3321;SDS011;1673;51.388;7.086;2022-09-09T04:25:26;8.27;;;2.80;;
3321;SDS011;1673;51.388;7.086;2022-09-09T04:27:56;8.52;;;2.63;;
3321;SDS011;1673;51.388;7.086;2022-09-09T04:30:29;12.98;;;2.80;;
3321;SDS011;1673;51.388;7.086;2022-09-09T04:33:01;10.57;;;2.90;;
3321;SDS011;1673;51.388;7.086;2022-09-09T04:35:31;7.55;;;3.20;;
3321;SDS011;1673;51.388;7.086;2022-09-09T04:38:01;12.65;;;3.40;;
3321;SDS011;1673;51.388;7.086;2022-09-09T04:40:32;9.35;;;2.90;;
3321;SDS011;1673;51.388;7.086;2022-09-09T04:43:02;8.07;;;3.10;;
3321;SDS011;1673;51.388;7.086;2022-09-09T04:45:34;5.90;;;2.60;;
3321;SDS011;1673;51.388;7.086;2022-09-09T04:48:07;9.05;;;3.40;;
3321;SDS011;1673;51.388;7.086;2022-09-09T04:50:38;8.27;;;2.80;;
3321;SDS011;1673;51.388;7.086;2022-09-09T04:53:10;9.55;;;3.30;;
3321;SDS011;1673;51.388;7.086;2022-09-09T04:55:40;10.68;;;2.90;;
3321;SDS011;1673;51.388;7.086;2022-09-09T04:58:10;8.85;;;3.17;;
3321;SDS011;1673;51.388;7.086;2022-09-09T05:00:42;12.23;;;2.90;;
3321;SDS011;1673;51.388;7.086;2022-09-09T05:03:12;9.52;;;3.17;;
3321;SDS011;1673;51.388;7.086;2022-09-09T05:05:42;7.00;;;3.63;;
3321;SDS011;1673;51.388;7.086;2022-09-09T05:08:13;6.93;;;3.20;;
3321;SDS011;1673;51.388;7.086;2022-09-09T05:10:43;5.55;;;2.90;;
3321;SDS011;1673;51.388;7.086;2022-09-09T05:13:13;6.80;;;3.13;;
3321;SDS011;1673;51.388;7.086;2022-09-09T05:15:45;5.90;;;3.20;;
3321;SDS011;1673;51.388;7.086;2022-09-09T05:18:21;6.47;;;3.05;;
3321;SDS011;1673;51.388;7.086;2022-09-09T05:20:51;11.43;;;3.17;;
3321;SDS011;1673;51.388;7.086;2022-09-09T05:23:22;14.95;;;3.75;;
3321;SDS011;1673;51.388;7.086;2022-09-09T05:25:55;10.35;;;3.30;;
3321;SDS011;1673;51.388;7.086;2022-09-09T05:28:26;8.00;;;3.08;;
3321;SDS011;1673;51.388;7.086;2022-09-09T05:31:00;12.73;;;3.30;;
3321;SDS011;1673;51.388;7.086;2022-09-09T05:33:33;11.60;;;2.90;;
3321;SDS011;1673;51.388;7.086;2022-09-09T05:36:04;6.50;;;3.00;;
3321;SDS011;1673;51.388;7.086;2022-09-09T05:38:35;9.63;;;3.20;;
3321;SDS011;1673;51.388;7.086;2022-09-09T05:41:06;10.90;;;3.60;;
3321;SDS011;1673;51.388;7.086;2022-09-09T05:43:37;10.37;;;2.97;;
3321;SDS011;1673;51.388;7.086;2022-09-09T05:46:11;15.50;;;3.17;;
3321;SDS011;1673;51.388;7.086;2022-09-09T05:48:45;11.23;;;3.60;;
3321;SDS011;1673;51.388;7.086;2022-09-09T05:51:19;6.35;;;3.30;;
3321;SDS011;1673;51.388;7.086;2022-09-09T05:53:50;7.75;;;3.20;;
3321;SDS011;1673;51.388;7.086;2022-09-09T05:56:22;10.68;;;2.95;;
3321;SDS011;1673;51.388;7.086;2022-09-09T05:58:55;12.20;;;3.03;;
3321;SDS011;1673;51.388;7.086;2022-09-09T06:01:30;14.38;;;3.13;;
3321;SDS011;1673;51.388;7.086;2022-09-09T06:04:02;7.80;;;2.90;;
3321;SDS011;1673;51.388;7.086;2022-09-09T06:06:33;7.63;;;2.88;;
3321;SDS011;1673;51.388;7.086;2022-09-09T06:09:11;11.87;;;3.30;;
3321;SDS011;1673;51.388;7.086;2022-09-09T06:11:42;10.60;;;2.83;;
3321;SDS011;1673;51.388;7.086;2022-09-09T06:14:13;9.30;;;2.90;;
3321;SDS011;1673;51.388;7.086;2022-09-09T06:16:49;11.48;;;3.00;;
3321;SDS011;1673;51.388;7.086;2022-09-09T06:19:21;10.00;;;2.85;;
3321;SDS011;1673;51.388;7.086;2022-09-09T06:21:55;7.82;;;3.10;;
3321;SDS011;1673;51.388;7.086;2022-09-09T06:24:26;11.15;;;2.90;;
3321;SDS011;1673;51.388;7.086;2022-09-09T06:26:57;11.65;;;3.30;;
3321;SDS011;1673;51.388;7.086;2022-09-09T06:29:31;9.37;;;2.90;;
3321;SDS011;1673;51.388;7.086;2022-09-09T06:32:04;10.98;;;3.10;;
3321;SDS011;1673;51.388;7.086;2022-09-09T06:34:35;6.28;;;2.90;;
3321;SDS011;1673;51.388;7.086;2022-09-09T06:37:05;12.77;;;3.00;;
3321;SDS011;1673;51.388;7.086;2022-09-09T06:39:40;10.45;;;3.30;;
3321;SDS011;1673;51.388;7.086;2022-09-09T06:42:10;8.15;;;2.90;;
3321;SDS011;1673;51.388;7.086;2022-09-09T06:45:05;12.93;;;3.33;;
3321;SDS011;1673;51.388;7.086;2022-09-09T06:47:46;5.87;;;2.83;;
3321;SDS011;1673;51.388;7.086;2022-09-09T06:50:17;9.20;;;3.10;;
3321;SDS011;1673;51.388;7.086;2022-09-09T06:52:48;7.50;;;2.58;;
3321;SDS011;1673;51.388;7.086;2022-09-09T06:55:18;7.47;;;3.00;;
3321;SDS011;1673;51.388;7.086;2022-09-09T06:57:47;11.35;;;2.55;;
3321;SDS011;1673;51.388;7.086;2022-09-09T07:00:21;7.10;;;2.70;;
3321;SDS011;1673;51.388;7.086;2022-09-09T07:02:53;6.03;;;2.60;;
3321;SDS011;1673;51.388;7.086;2022-09-09T07:05:23;10.95;;;2.97;;
3321;SDS011;1673;51.388;7.086;2022-09-09T07:07:53;7.90;;;2.30;;
3321;SDS011;1673;51.388;7.086;2022-09-09T07:10:23;8.18;;;2.30;;
3321;SDS011;1673;51.388;7.086;2022-09-09T07:12:54;8.02;;;2.38;;
3321;SDS011;1673;51.388;7.086;2022-09-09T07:15:25;9.70;;;3.03;;
3321;SDS011;1673;51.388;7.086;2022-09-09T07:17:57;7.85;;;2.28;;
3321;SDS011;1673;51.388;7.086;2022-09-09T07:20:30;6.50;;;2.33;;
3321;SDS011;1673;51.388;7.086;2022-09-09T07:23:00;10.50;;;3.30;;
3321;SDS011;1673;51.388;7.086;2022-09-09T07:25:30;7.53;;;2.10;;
3321;SDS011;1673;51.388;7.086;2022-09-09T07:28:00;7.78;;;2.60;;
3321;SDS011;1673;51.388;7.086;2022-09-09T07:30:29;8.93;;;2.50;;
3321;SDS011;1673;51.388;7.086;2022-09-09T07:33:02;9.13;;;2.33;;
3321;SDS011;1673;51.388;7.086;2022-09-09T07:35:31;5.50;;;2.30;;
3321;SDS011;1673;51.388;7.086;2022-09-09T07:38:03;6.13;;;2.17;;
3321;SDS011;1673;51.388;7.086;2022-09-09T07:40:34;8.98;;;2.10;;
3321;SDS011;1673;51.388;7.086;2022-09-09T07:43:05;5.68;;;2.30;;
3321;SDS011;1673;51.388;7.086;2022-09-09T07:45:38;12.68;;;2.65;;
3321;SDS011;1673;51.388;7.086;2022-09-09T07:48:12;7.22;;;2.30;;
3321;SDS011;1673;51.388;7.086;2022-09-09T07:50:42;10.02;;;2.80;;
3321;SDS011;1673;51.388;7.086;2022-09-09T07:53:11;9.13;;;2.50;;
3321;SDS011;1673;51.388;7.086;2022-09-09T07:55:41;7.53;;;2.40;;
3321;SDS011;1673;51.388;7.086;2022-09-09T07:58:10;11.25;;;2.40;;
3321;SDS011;1673;51.388;7.086;2022-09-09T08:00:40;7.90;;;2.57;;
3321;SDS011;1673;51.388;7.086;2022-09-09T08:03:13;7.93;;;2.00;;
3321;SDS011;1673;51.388;7.086;2022-09-09T08:05:43;7.53;;;2.20;;
3321;SDS011;1673;51.388;7.086;2022-09-09T08:08:13;7.22;;;2.10;;
3321;SDS011;1673;51.388;7.086;2022-09-09T08:10:42;7.33;;;2.00;;
3321;SDS011;1673;51.388;7.086;2022-09-09T08:13:12;7.20;;;2.15;;
3321;SDS011;1673;51.388;7.086;2022-09-09T08:15:45;6.93;;;2.00;;
3321;SDS011;1673;51.388;7.086;2022-09-09T08:18:20;9.00;;;2.00;;
3321;SDS011;1673;51.388;7.086;2022-09-09T08:20:50;8.73;;;2.35;;
3321;SDS011;1673;51.388;7.086;2022-09-09T08:23:19;8.57;;;2.40;;
3321;SDS011;1673;51.388;7.086;2022-09-09T08:25:49;9.95;;;2.40;;
3321;SDS011;1673;51.388;7.086;2022-09-09T08:28:19;7.30;;;2.30;;
3321;SDS011;1673;51.388;7.086;2022-09-09T08:30:48;7.38;;;2.00;;
3321;SDS011;1673;51.388;7.086;2022-09-09T08:33:22;8.52;;;1.98;;
3321;SDS011;1673;51.388;7.086;2022-09-09T08:35:52;9.80;;;2.28;;
3321;SDS011;1673;51.388;7.086;2022-09-09T08:38:22;8.20;;;2.23;;
3321;SDS011;1673;51.388;7.086;2022-09-09T08:40:52;8.80;;;2.50;;
3321;SDS011;1673;51.388;7.086;2022-09-09T08:43:26;7.65;;;2.90;;
3321;SDS011;1673;51.388;7.086;2022-09-09T08:46:00;8.33;;;2.60;;
3321;SDS011;1673;51.388;7.086;2022-09-09T08:48:42;7.53;;;2.30;;
3321;SDS011;1673;51.388;7.086;2022-09-09T08:51:16;8.50;;;2.85;;
3321;SDS011;1673;51.388;7.086;2022-09-09T08:53:47;14.60;;;3.00;;
3321;SDS011;1673;51.388;7.086;2022-09-09T08:56:25;6.83;;;2.40;;
3321;SDS011;1673;51.388;7.086;2022-09-09T08:58:59;7.88;;;2.70;;
3321;SDS011;1673;51.388;7.086;2022-09-09T09:01:41;7.97;;;2.22;;
3321;SDS011;1673;51.388;7.086;2022-09-09T09:04:26;7.32;;;2.30;;
3321;SDS011;1673;51.388;7.086;2022-09-09T09:07:05;11.57;;;2.20;;
3321;SDS011;1673;51.388;7.086;2022-09-09T09:09:46;7.05;;;2.05;;
3321;SDS011;1673;51.388;7.086;2022-09-09T09:12:26;9.65;;;2.90;;
3321;SDS011;1673;51.388;7.086;2022-09-09T09:14:58;8.27;;;2.13;;
3321;SDS011;1673;51.388;7.086;2022-09-09T09:17:35;9.60;;;2.22;;
3321;SDS011;1673;51.388;7.086;2022-09-09T09:20:13;14.25;;;2.50;;
3321;SDS011;1673;51.388;7.086;2022-09-09T09:22:47;10.13;;;2.87;;
3321;SDS011;1673;51.388;7.086;2022-09-09T09:25:19;11.23;;;2.50;;
3321;SDS011;1673;51.388;7.086;2022-09-09T09:27:52;8.47;;;2.20;;
3321;SDS011;1673;51.388;7.086;2022-09-09T09:30:35;9.60;;;2.40;;
3321;SDS011;1673;51.388;7.086;2022-09-09T09:33:12;10.70;;;2.40;;
3321;SDS011;1673;51.388;7.086;2022-09-09T09:35:48;10.35;;;2.10;;
3321;SDS011;1673;51.388;7.086;2022-09-09T09:38:20;8.13;;;2.30;;
3321;SDS011;1673;51.388;7.086;2022-09-09T09:41:11;9.10;;;2.00;;
3321;SDS011;1673;51.388;7.086;2022-09-09T09:43:41;5.80;;;1.70;;
3321;SDS011;1673;51.388;7.086;2022-09-09T09:46:19;10.68;;;1.90;;
3321;SDS011;1673;51.388;7.086;2022-09-09T09:48:58;5.70;;;1.77;;
3321;SDS011;1673;51.388;7.086;2022-09-09T09:51:32;8.20;;;2.22;;
3321;SDS011;1673;51.388;7.086;2022-09-09T09:54:05;6.35;;;1.70;;
3321;SDS011;1673;51.388;7.086;2022-09-09T09:56:40;7.95;;;2.92;;
3321;SDS011;1673;51.388;7.086;2022-09-09T09:59:19;9.68;;;2.55;;
3321;SDS011;1673;51.388;7.086;2022-09-09T10:02:06;3.83;;;1.40;;
3321;SDS011;1673;51.388;7.086;2022-09-09T10:04:59;7.70;;;1.80;;
3321;SDS011;1673;51.388;7.086;2022-09-09T10:07:35;9.52;;;2.20;;
3321;SDS011;1673;51.388;7.086;2022-09-09T10:10:07;7.38;;;1.67;;
3321;SDS011;1673;51.388;7.086;2022-09-09T10:12:40;4.53;;;1.90;;
3321;SDS011;1673;51.388;7.086;2022-09-09T10:15:22;8.52;;;1.80;;
3321;SDS011;1673;51.388;7.086;2022-09-09T10:18:00;9.93;;;2.10;;
3321;SDS011;1673;51.388;7.086;2022-09-09T10:20:40;8.13;;;2.00;;
3321;SDS011;1673;51.388;7.086;2022-09-09T10:23:21;10.52;;;1.70;;
3321;SDS011;1673;51.388;7.086;2022-09-09T10:26:01;7.43;;;1.83;;
3321;SDS011;1673;51.388;7.086;2022-09-09T10:31:30;6.57;;;1.75;;
3321;SDS011;1673;51.388;7.086;2022-09-09T10:34:06;3.30;;;1.50;;
3321;SDS011;1673;51.388;7.086;2022-09-09T10:36:46;7.03;;;1.20;;
3321;SDS011;1673;51.388;7.086;2022-09-09T10:39:23;6.30;;;1.70;;
3321;SDS011;1673;51.388;7.086;2022-09-09T10:42:08;4.80;;;1.52;;
3321;SDS011;1673;51.388;7.086;2022-09-09T10:44:42;7.55;;;1.75;;
3321;SDS011;1673;51.388;7.086;2022-09-09T10:50:14;7.10;;;1.75;;
3321;SDS011;1673;51.388;7.086;2022-09-09T10:53:18;6.45;;;2.00;;
3321;SDS011;1673;51.388;7.086;2022-09-09T10:55:56;5.75;;;1.60;;
3321;SDS011;1673;51.388;7.086;2022-09-09T10:58:30;3.65;;;1.30;;
3321;SDS011;1673;51.388;7.086;2022-09-09T11:01:05;7.95;;;1.80;;
3321;SDS011;1673;51.388;7.086;2022-09-09T11:03:40;6.87;;;1.50;;
3321;SDS011;1673;51.388;7.086;2022-09-09T11:06:12;4.20;;;1.80;;
3321;SDS011;1673;51.388;7.086;2022-09-09T11:08:43;5.22;;;1.50;;
3321;SDS011;1673;51.388;7.086;2022-09-09T11:11:25;7.95;;;1.83;;
3321;SDS011;1673;51.388;7.086;2022-09-09T11:13:57;4.75;;;1.40;;
3321;SDS011;1673;51.388;7.086;2022-09-09T11:16:30;5.23;;;1.40;;
3321;SDS011;1673;51.388;7.086;2022-09-09T11:19:04;7.65;;;1.40;;
3321;SDS011;1673;51.388;7.086;2022-09-09T11:21:40;7.20;;;1.30;;
3321;SDS011;1673;51.388;7.086;2022-09-09T11:24:13;5.82;;;1.50;;
3321;SDS011;1673;51.388;7.086;2022-09-09T11:26:49;7.55;;;1.52;;
3321;SDS011;1673;51.388;7.086;2022-09-09T11:29:32;5.40;;;1.70;;
3321;SDS011;1673;51.388;7.086;2022-09-09T11:32:37;6.43;;;1.30;;
3321;SDS011;1673;51.388;7.086;2022-09-09T11:35:23;4.50;;;1.80;;
3321;SDS011;1673;51.388;7.086;2022-09-09T11:38:08;5.60;;;1.30;;
3321;SDS011;1673;51.388;7.086;2022-09-09T11:40:54;3.92;;;1.20;;
3321;SDS011;1673;51.388;7.086;2022-09-09T11:43:29;4.57;;;1.60;;
3321;SDS011;1673;51.388;7.086;2022-09-09T11:46:02;8.30;;;1.80;;
3321;SDS011;1673;51.388;7.086;2022-09-09T11:48:32;5.00;;;1.80;;
3321;SDS011;1673;51.388;7.086;2022-09-09T11:51:05;9.63;;;1.40;;
3321;SDS011;1673;51.388;7.086;2022-09-09T11:53:52;5.75;;;2.05;;
3321;SDS011;1673;51.388;7.086;2022-09-09T11:56:24;6.70;;;1.48;;
3321;SDS011;1673;51.388;7.086;2022-09-09T11:58:59;3.38;;;1.48;;
3321;SDS011;1673;51.388;7.086;2022-09-09T12:01:35;3.40;;;1.60;;
3321;SDS011;1673;51.388;7.086;2022-09-09T12:04:16;6.27;;;1.87;;
3321;SDS011;1673;51.388;7.086;2022-09-09T12:06:52;6.20;;;1.75;;
3321;SDS011;1673;51.388;7.086;2022-09-09T12:09:25;5.90;;;1.60;;
3321;SDS011;1673;51.388;7.086;2022-09-09T12:12:05;6.10;;;1.70;;
3321;SDS011;1673;51.388;7.086;2022-09-09T12:14:43;6.13;;;1.40;;
3321;SDS011;1673;51.388;7.086;2022-09-09T12:17:26;7.25;;;1.58;;
3321;SDS011;1673;51.388;7.086;2022-09-09T12:20:00;4.40;;;1.40;;
3321;SDS011;1673;51.388;7.086;2022-09-09T12:22:40;3.65;;;1.30;;
3321;SDS011;1673;51.388;7.086;2022-09-09T12:25:16;6.40;;;1.50;;
3321;SDS011;1673;51.388;7.086;2022-09-09T12:27:55;6.73;;;1.70;;
3321;SDS011;1673;51.388;7.086;2022-09-09T12:30:34;4.55;;;1.45;;
3321;SDS011;1673;51.388;7.086;2022-09-09T12:33:10;4.32;;;1.30;;
3321;SDS011;1673;51.388;7.086;2022-09-09T12:35:43;3.90;;;1.42;;
3321;SDS011;1673;51.388;7.086;2022-09-09T12:38:15;6.30;;;1.70;;
3321;SDS011;1673;51.388;7.086;2022-09-09T12:40:53;5.60;;;1.40;;
3321;SDS011;1673;51.388;7.086;2022-09-09T12:43:25;6.75;;;1.80;;
3321;SDS011;1673;51.388;7.086;2022-09-09T12:45:58;7.05;;;1.80;;
3321;SDS011;1673;51.388;7.086;2022-09-09T12:48:32;9.27;;;1.90;;
3321;SDS011;1673;51.388;7.086;2022-09-09T12:51:04;5.40;;;2.53;;
3321;SDS011;1673;51.388;7.086;2022-09-09T12:53:37;5.47;;;1.40;;
3321;SDS011;1673;51.388;7.086;2022-09-09T12:56:07;5.65;;;1.58;;
3321;SDS011;1673;51.388;7.086;2022-09-09T12:58:38;7.45;;;2.10;;
3321;SDS011;1673;51.388;7.086;2022-09-09T13:01:20;4.30;;;1.30;;
3321;SDS011;1673;51.388;7.086;2022-09-09T13:03:51;4.40;;;1.50;;
3321;SDS011;1673;51.388;7.086;2022-09-09T13:06:22;5.60;;;1.90;;
3321;SDS011;1673;51.388;7.086;2022-09-09T13:08:55;4.60;;;1.40;;
3321;SDS011;1673;51.388;7.086;2022-09-09T13:11:27;6.43;;;1.40;;
3321;SDS011;1673;51.388;7.086;2022-09-09T13:13:58;4.63;;;1.63;;
3321;SDS011;1673;51.388;7.086;2022-09-09T13:16:32;5.30;;;1.40;;
3321;SDS011;1673;51.388;7.086;2022-09-09T13:19:09;7.57;;;1.73;;
3321;SDS011;1673;51.388;7.086;2022-09-09T13:21:43;7.03;;;2.33;;
3321;SDS011;1673;51.388;7.086;2022-09-09T13:24:22;7.95;;;1.70;;
3321;SDS011;1673;51.388;7.086;2022-09-09T13:26:55;5.63;;;1.70;;
3321;SDS011;1673;51.388;7.086;2022-09-09T13:29:26;6.13;;;2.10;;
3321;SDS011;1673;51.388;7.086;2022-09-09T13:32:05;10.75;;;2.58;;
3321;SDS011;1673;51.388;7.086;2022-09-09T13:34:36;4.50;;;2.20;;
3321;SDS011;1673;51.388;7.086;2022-09-09T13:37:06;8.60;;;2.58;;
3321;SDS011;1673;51.388;7.086;2022-09-09T13:39:50;6.65;;;2.47;;
3321;SDS011;1673;51.388;7.086;2022-09-09T13:42:24;11.15;;;3.22;;
3321;SDS011;1673;51.388;7.086;2022-09-09T13:44:55;11.67;;;2.80;;
3321;SDS011;1673;51.388;7.086;2022-09-09T13:47:32;8.07;;;2.95;;
3321;SDS011;1673;51.388;7.086;2022-09-09T13:50:17;5.80;;;2.60;;
3321;SDS011;1673;51.388;7.086;2022-09-09T13:52:49;6.03;;;2.40;;
3321;SDS011;1673;51.388;7.086;2022-09-09T13:55:19;6.65;;;2.60;;
3321;SDS011;1673;51.388;7.086;2022-09-09T13:57:50;6.65;;;2.30;;
3321;SDS011;1673;51.388;7.086;2022-09-09T14:00:21;6.93;;;2.10;;
3321;SDS011;1673;51.388;7.086;2022-09-09T14:02:53;6.93;;;2.53;;
3321;SDS011;1673;51.388;7.086;2022-09-09T14:05:23;5.80;;;1.90;;
3321;SDS011;1673;51.388;7.086;2022-09-09T14:07:53;4.77;;;1.90;;
3321;SDS011;1673;51.388;7.086;2022-09-09T14:10:23;4.60;;;1.70;;
3321;SDS011;1673;51.388;7.086;2022-09-09T14:12:52;3.53;;;1.70;;
3321;SDS011;1673;51.388;7.086;2022-09-09T14:15:22;5.53;;;2.10;;
3321;SDS011;1673;51.388;7.086;2022-09-09T14:17:56;6.32;;;2.03;;
3321;SDS011;1673;51.388;7.086;2022-09-09T14:20:25;6.50;;;2.35;;
3321;SDS011;1673;51.388;7.086;2022-09-09T14:22:55;5.15;;;2.20;;
3321;SDS011;1673;51.388;7.086;2022-09-09T14:25:28;8.23;;;2.70;;
3321;SDS011;1673;51.388;7.086;2022-09-09T14:27:59;8.20;;;2.40;;
3321;SDS011;1673;51.388;7.086;2022-09-09T14:30:29;8.02;;;2.33;;
3321;SDS011;1673;51.388;7.086;2022-09-09T14:33:02;8.20;;;2.42;;
3321;SDS011;1673;51.388;7.086;2022-09-09T14:35:31;5.63;;;2.30;;
3321;SDS011;1673;51.388;7.086;2022-09-09T14:38:03;7.32;;;2.50;;
3321;SDS011;1673;51.388;7.086;2022-09-09T14:40:33;6.32;;;2.05;;
3321;SDS011;1673;51.388;7.086;2022-09-09T14:43:03;8.18;;;2.20;;
3321;SDS011;1673;51.388;7.086;2022-09-09T14:45:35;4.18;;;1.85;;
3321;SDS011;1673;51.388;7.086;2022-09-09T14:48:08;7.75;;;2.20;;
3321;SDS011;1673;51.388;7.086;2022-09-09T14:50:37;7.25;;;2.50;;
3321;SDS011;1673;51.388;7.086;2022-09-09T14:53:07;8.98;;;2.40;;
3321;SDS011;1673;51.388;7.086;2022-09-09T14:55:37;6.53;;;2.60;;
3321;SDS011;1673;51.388;7.086;2022-09-09T14:58:07;6.97;;;2.70;;
3321;SDS011;1673;51.388;7.086;2022-09-09T15:00:37;8.63;;;2.40;;
3321;SDS011;1673;51.388;7.086;2022-09-09T15:03:10;7.38;;;2.72;;
3321;SDS011;1673;51.388;7.086;2022-09-09T15:05:39;6.87;;;2.00;;
3321;SDS011;1673;51.388;7.086;2022-09-09T15:08:09;5.57;;;1.65;;
3321;SDS011;1673;51.388;7.086;2022-09-09T15:10:38;4.35;;;1.30;;
3321;SDS011;1673;51.388;7.086;2022-09-09T15:13:08;3.70;;;0.95;;
3321;SDS011;1673;51.388;7.086;2022-09-09T15:15:38;3.60;;;0.93;;
3321;SDS011;1673;51.388;7.086;2022-09-09T15:18:11;4.15;;;1.10;;
3321;SDS011;1673;51.388;7.086;2022-09-09T15:20:44;3.50;;;0.70;;
3321;SDS011;1673;51.388;7.086;2022-09-09T15:23:14;4.50;;;1.10;;
3321;SDS011;1673;51.388;7.086;2022-09-09T15:25:50;3.80;;;0.80;;
3321;SDS011;1673;51.388;7.086;2022-09-09T15:28:21;2.70;;;0.80;;
3321;SDS011;1673;51.388;7.086;2022-09-09T15:30:52;3.30;;;0.70;;
3321;SDS011;1673;51.388;7.086;2022-09-09T15:33:25;3.97;;;0.90;;
3321;SDS011;1673;51.388;7.086;2022-09-09T15:35:55;2.97;;;0.88;;
3321;SDS011;1673;51.388;7.086;2022-09-09T15:38:24;2.58;;;1.00;;
3321;SDS011;1673;51.388;7.086;2022-09-09T15:40:54;3.13;;;1.17;;
3321;SDS011;1673;51.388;7.086;2022-09-09T15:43:24;3.40;;;0.70;;
3321;SDS011;1673;51.388;7.086;2022-09-09T15:45:54;3.80;;;1.02;;
3321;SDS011;1673;51.388;7.086;2022-09-09T15:48:32;3.70;;;0.80;;
3321;SDS011;1673;51.388;7.086;2022-09-09T15:51:22;3.40;;;1.00;;
3321;SDS011;1673;51.388;7.086;2022-09-09T15:54:10;2.97;;;1.00;;
3321;SDS011;1673;51.388;7.086;2022-09-09T15:56:41;1.77;;;0.77;;
3321;SDS011;1673;51.388;7.086;2022-09-09T15:59:11;5.13;;;1.00;;
3321;SDS011;1673;51.388;7.086;2022-09-09T16:01:41;4.40;;;0.90;;